Terminal Aerodrome Forecast
Issued by NWS Albany, NY

Home | Current Version | Previous Version | Text Only | Print | Product List | Glossary On
Versions: 1 2 3 4 5 6 7 8 9 10 11 12
684
FTUS41 KALY 250520
TAFPOU
TAF
KPOU 250520Z 2506/2606 VRB03KT P6SM SCT250 WS020/24025KT
     FM251300 21009KT P6SM SCT045 BKN250
     FM252100 21007KT P6SM VCSH BKN050 OVC120
     FM260300 VRB03KT 6SM BR VCSH SCT020 BKN040=

USA.gov is the U.S. government's official web portal to all federal, state and local government web resources and services.